Terminal Aerodrome Forecast
Issued by NWS

Home | Current Version | Previous Version | Text Only | Print | Product List | Glossary On
Versions: 1 2 3 4 5 6 7 8 9 10 11 12 13 14
551
FTUS44 KTSA 220520
TAFFYV
TAF
KFYV 220520Z 2206/2306 00000KT P6SM SKC
     FM221500 21011G16KT P6SM SCT050
     FM230100 19003KT P6SM SKC=

USA.gov is the U.S. government's official web portal to all federal, state and local government web resources and services.